Time;durP1;ratioP1;P1;durP2;ratioP2;P2;SDS_P1;SDS_P2;PMS_P1;PMS_P2;Temp;Humidity;BMP_temperature;BMP_pressure;BME280_temperature;BME280_humidity;BME280_pressure;Samples;Min_cycle;Max_cycle;Signal;HPM_P1;HPM_P2
2022/10/08 00:00:57;;;;;;;14.88;3.35;;;;;;;13.61;44.87;101528.78;7395015;19;19998;-61
2022/10/08 00:03:25;;;;;;;17.40;3.85;;;;;;;13.56;45.14;101520.78;7393999;19;20048;-62
2022/10/08 00:05:59;;;;;;;16.85;4.35;;;;;;;13.65;44.73;101524.19;7395165;19;20010;-62
2022/10/08 00:08:25;;;;;;;;;;;;;;;13.58;45.00;101525.94;7392334;19;20002;-61
2022/10/08 00:10:53;;;;;;;16.55;5.18;;;;;;;13.60;44.88;101524.44;7394245;19;19915;-61
2022/10/08 00:13:20;;;;;;;16.90;5.57;;;;;;;13.64;44.68;101519.88;7393874;19;19995;-61
2022/10/08 00:15:46;;;;;;;16.25;5.70;;;;;;;13.46;45.35;101526.72;7393007;19;20327;-61
2022/10/08 00:18:11;;;;;;;21.92;7.78;;;;;;;13.54;45.09;101525.00;7393712;19;20003;-61
2022/10/08 00:20:37;;;;;;;21.17;10.95;;;;;;;13.56;44.93;101519.97;7393472;19;20015;-61
2022/10/08 00:23:02;;;;;;;32.88;13.18;;;;;;;13.59;45.04;101520.06;7390934;19;20015;-61
2022/10/08 00:25:28;;;;;;;34.92;15.25;;;;;;;13.68;45.05;101522.72;7393062;19;20031;-61
2022/10/08 00:27:53;;;;;;;40.63;18.23;;;;;;;13.60;44.96;101510.72;7390406;19;20362;-62
2022/10/08 00:30:19;;;;;;;50.47;23.08;;;;;;;13.54;45.15;101514.03;7390696;19;20014;-61
2022/10/08 00:32:45;;;;;;;50.10;22.05;;;;;;;13.58;45.05;101504.78;7393549;19;20010;-61
2022/10/08 00:35:10;;;;;;;42.38;19.73;;;;;;;13.52;45.14;101509.69;7394565;19;20518;-61
2022/10/08 00:37:36;;;;;;;39.78;14.80;;;;;;;13.43;45.22;101502.75;7392989;19;20455;-61
2022/10/08 00:40:02;;;;;;;28.73;12.90;;;;;;;13.52;45.37;101495.19;7393584;19;20009;-60
2022/10/08 00:42:28;;;;;;;22.63;8.88;;;;;;;13.48;45.34;101494.28;7392952;19;20003;-61
2022/10/08 00:44:56;;;;;;;21.33;6.45;;;;;;;13.46;45.39;101491.06;7391415;19;20463;-60
2022/10/08 00:47:31;;;;;;;17.80;4.32;;;;;;;13.35;45.70;101484.47;7392729;19;20009;-60
2022/10/08 00:50:00;;;;;;;15.90;4.20;;;;;;;13.40;45.35;101474.06;7391904;19;20029;-60
2022/10/08 00:52:34;;;;;;;11.55;3.50;;;;;;;13.44;45.34;101471.44;7391899;19;19999;-61
2022/10/08 00:55:05;;;;;;;13.77;3.40;;;;;;;13.41;45.36;101472.94;7392463;19;20538;-61
2022/10/08 00:57:34;;;;;;;19.42;3.67;;;;;;;13.37;45.40;101458.28;7393683;19;20005;-61
2022/10/08 01:00:05;;;;;;;16.27;3.45;;;;;;;13.29;45.69;101459.22;7392363;19;20007;-61
2022/10/08 01:02:30;;;;;;;13.43;3.08;;;;;;;13.35;45.50;101459.81;7390595;19;20494;-60
2022/10/08 01:04:56;;;;;;;16.40;3.20;;;;;;;13.31;45.59;101465.19;7390720;19;20009;-61
2022/10/08 01:07:34;;;;;;;19.30;3.60;;;;;;;13.31;45.94;101465.97;7390850;19;20006;-61
2022/10/08 01:10:09;;;;;;;15.98;3.35;;;;;;;13.27;45.59;101462.28;7389927;19;19998;-61
2022/10/08 01:12:50;;;;;;;10.00;2.85;;;;;;;13.43;45.42;101458.88;7392194;19;20017;-61
2022/10/08 01:15:22;;;;;;;12.27;3.05;;;;;;;13.37;45.63;101449.28;7393130;19;20455;-61
2022/10/08 01:18:29;;;;;;;10.48;2.72;;;;;;;13.46;45.48;101455.41;7390259;19;20346;-61
2022/10/08 01:21:25;;;;;;;11.98;3.35;;;;;;;13.51;45.43;101461.47;7390991;19;20062;-61
2022/10/08 01:24:00;;;;;;;14.18;3.15;;;;;;;13.40;45.72;101459.56;7387116;19;19999;-61
2022/10/08 01:27:10;;;;;;;12.70;3.45;;;;;;;13.52;45.75;101446.59;7390915;19;20009;-60
2022/10/08 01:29:41;;;;;;;15.90;3.38;;;;;;;13.57;45.27;101451.06;7388605;19;19994;-61
2022/10/08 01:32:13;;;;;;;13.38;3.33;;;;;;;13.55;45.45;101445.13;7391498;19;20074;-61
2022/10/08 01:35:19;;;;;;;11.55;2.90;;;;;;;13.55;45.58;101450.63;7392376;19;20006;-59
2022/10/08 01:37:47;;;;;;;14.35;3.42;;;;;;;13.44;45.86;101452.22;7388863;19;20430;-61
2022/10/08 01:40:19;;;;;;;17.77;3.70;;;;;;;13.42;45.87;101449.03;7391016;19;20003;-60
2022/10/08 01:42:48;;;;;;;13.75;3.53;;;;;;;13.41;45.86;101452.91;7390299;19;19995;-59
2022/10/08 01:45:18;;;;;;;14.30;3.00;;;;;;;13.36;46.04;101453.16;7390119;19;20009;-60
2022/10/08 01:47:46;;;;;;;12.20;3.53;;;;;;;13.47;46.00;101449.59;7389874;19;20003;-60
2022/10/08 01:50:20;;;;;;;14.63;3.17;;;;;;;13.42;46.05;101452.56;7390902;19;19999;-61
2022/10/08 01:52:51;;;;;;;17.00;3.70;;;;;;;13.47;45.84;101457.81;7390568;19;20002;-60
2022/10/08 01:55:24;;;;;;;9.98;3.05;;;;;;;13.51;45.72;101458.75;7391245;19;20018;-61
2022/10/08 01:57:51;;;;;;;16.40;3.28;;;;;;;13.21;46.46;101452.72;7391800;19;20521;-60
2022/10/08 02:00:17;;;;;;;13.73;3.00;;;;;;;13.33;46.33;101458.19;7389327;19;20026;-60
2022/10/08 02:02:42;;;;;;;12.38;3.40;;;;;;;13.26;46.37;101452.50;7388758;19;20058;-60
2022/10/08 02:05:10;;;;;;;11.80;3.08;;;;;;;13.27;46.32;101447.78;7388973;19;20002;-60
2022/10/08 02:07:41;;;;;;;14.23;3.28;;;;;;;13.30;46.51;101447.91;7389962;19;20003;-60
2022/10/08 02:10:20;;;;;;;11.52;3.10;;;;;;;13.30;46.39;101455.34;7389512;19;20458;-59
2022/10/08 02:12:45;;;;;;;15.30;3.13;;;;;;;13.29;46.50;101446.31;7389518;19;20009;-60
2022/10/08 02:15:16;;;;;;;16.83;3.83;;;;;;;13.16;46.83;101452.97;7390603;19;19999;-60
2022/10/08 02:17:55;;;;;;;16.15;3.33;;;;;;;13.14;46.89;101456.03;7389050;19;20315;-60
2022/10/08 02:20:32;;;;;;;14.20;3.53;;;;;;;13.21;46.83;101455.47;7390031;19;19998;-60
2022/10/08 02:23:04;;;;;;;15.82;3.60;;;;;;;13.25;46.81;101458.31;7388769;19;20026;-60
2022/10/08 02:25:39;;;;;;;15.20;3.55;;;;;;;13.22;46.96;101468.00;7390096;19;20054;-57
2022/10/08 02:28:11;;;;;;;9.60;3.33;;;;;;;13.12;47.02;101461.03;7388422;19;20062;-59
2022/10/08 02:30:49;;;;;;;15.40;3.08;;;;;;;13.20;47.03;101464.81;7389893;19;20002;-59
2022/10/08 02:33:30;;;;;;;14.57;3.63;;;;;;;13.27;46.79;101454.06;7389690;19;20002;-58
2022/10/08 02:35:59;;;;;;;16.17;3.47;;;;;;;13.27;46.90;101461.50;7390824;19;20467;-58
2022/10/08 02:38:35;;;;;;;14.38;3.25;;;;;;;13.33;46.78;101460.13;7389313;19;19995;-60
2022/10/08 02:41:03;;;;;;;10.45;3.00;;;;;;;13.31;46.71;101455.00;7389927;19;19994;-59
2022/10/08 02:43:32;;;;;;;13.75;3.30;;;;;;;13.29;46.83;101451.00;7388149;19;20016;-59
2022/10/08 02:46:08;;;;;;;13.70;3.88;;;;;;;13.23;47.04;101460.59;7387915;19;20003;-60
2022/10/08 02:48:35;;;;;;;21.77;3.60;;;;;;;13.24;46.93;101454.78;7388578;19;20412;-59
2022/10/08 02:51:05;;;;;;;14.70;3.08;;;;;;;13.27;47.05;101458.75;7388056;19;19991;-59
2022/10/08 02:53:36;;;;;;;15.18;3.10;;;;;;;13.19;47.30;101463.22;7387620;19;20352;-60
2022/10/08 02:56:15;;;;;;;15.30;2.78;;;;;;;13.18;47.37;101460.84;7397061;19;20413;-60
2022/10/08 02:58:42;;;;;;;17.80;3.38;;;;;;;13.33;46.91;101455.44;7394282;19;20428;-60
2022/10/08 03:01:36;;;;;;;11.52;3.28;;;;;;;13.45;46.96;101460.13;7397267;19;20007;-60
2022/10/08 03:04:18;;;;;;;12.15;3.60;;;;;;;13.36;47.20;101464.13;7395140;19;20003;-60
2022/10/08 03:06:44;;;;;;;12.70;3.38;;;;;;;13.43;46.85;101472.59;7394303;19;20163;-61
2022/10/08 03:09:13;;;;;;;11.35;3.35;;;;;;;13.49;46.89;101463.78;7394857;19;19995;-61
2022/10/08 03:11:39;;;;;;;14.70;3.45;;;;;;;13.46;46.97;101458.97;7397057;19;20005;-61
2022/10/08 03:14:08;;;;;;;13.60;3.17;;;;;;;13.48;47.09;101459.44;7394721;19;20472;-61
2022/10/08 03:16:39;;;;;;;17.23;3.75;;;;;;;13.54;47.00;101454.50;7396851;19;20006;-61
2022/10/08 03:19:07;;;;;;;12.23;3.17;;;;;;;13.44;47.07;101452.22;7395332;19;20010;-61
2022/10/08 03:21:35;;;;;;;13.68;3.10;;;;;;;13.44;47.19;101463.19;7396267;19;20336;-61
2022/10/08 03:24:00;;;;;;;12.23;3.33;;;;;;;13.48;47.02;101456.69;7394175;19;20091;-61
2022/10/08 03:26:32;;;;;;;16.10;3.42;;;;;;;13.36;47.32;101451.22;7394696;19;20006;-61
2022/10/08 03:28:57;;;;;;;14.25;2.92;;;;;;;13.39;47.29;101450.50;7395310;19;20018;-62
2022/10/08 03:31:23;;;;;;;11.82;3.13;;;;;;;13.47;46.96;101457.81;7396151;19;20008;-62
2022/10/08 03:33:50;;;;;;;13.98;3.30;;;;;;;13.53;47.22;101455.66;7394301;19;20010;-61
2022/10/08 03:36:16;;;;;;;13.23;3.13;;;;;;;13.45;47.30;101448.34;7395285;19;20378;-61
2022/10/08 03:38:41;;;;;;;14.38;3.03;;;;;;;13.43;47.28;101456.94;7395343;19;19995;-62
2022/10/08 03:41:08;;;;;;;10.80;3.05;;;;;;;13.36;47.72;101456.72;7395252;19;20008;-62
2022/10/08 03:43:34;;;;;;;10.05;2.90;;;;;;;13.33;47.81;101469.16;7394892;19;19994;-62
2022/10/08 03:46:01;;;;;;;15.13;3.22;;;;;;;13.41;47.72;101478.41;7396198;19;20009;-62
2022/10/08 03:48:27;;;;;;;12.35;3.28;;;;;;;13.39;48.01;101477.94;7392810;19;20107;-61
2022/10/08 03:51:01;;;;;;;13.55;3.20;;;;;;;13.32;48.15;101473.03;7395011;19;20005;-62
2022/10/08 03:53:31;;;;;;;13.48;3.10;;;;;;;13.35;47.82;101473.50;7394519;19;20037;-62
2022/10/08 03:56:02;;;;;;;12.60;3.25;;;;;;;13.35;47.98;101476.25;7394681;19;20082;-62
2022/10/08 03:58:28;;;;;;;14.40;3.60;;;;;;;13.37;48.11;101474.75;7395270;19;20011;-62
2022/10/08 04:01:03;;;;;;;12.90;3.00;;;;;;;13.34;48.22;101469.94;7394570;19;20686;-60
2022/10/08 04:03:30;;;;;;;11.07;2.75;;;;;;;13.41;48.25;101472.94;7393462;19;20455;-60
2022/10/08 04:05:56;;;;;;;18.77;3.22;;;;;;;13.40;48.29;101467.78;7392826;19;19995;-60
2022/10/08 04:08:22;;;;;;;11.95;2.92;;;;;;;13.53;48.01;101461.16;7392014;19;20003;-60
2022/10/08 04:10:48;;;;;;;15.73;3.05;;;;;;;13.49;47.99;101472.00;7394574;19;20002;-60
2022/10/08 04:13:15;;;;;;;11.15;3.00;;;;;;;13.46;48.08;101471.88;7393327;19;19998;-60
2022/10/08 04:15:46;;;;;;;15.90;3.20;;;;;;;13.48;48.38;101475.09;7394612;19;19990;-61
2022/10/08 04:18:12;;;;;;;9.55;2.67;;;;;;;13.51;48.20;101479.91;7393641;19;20357;-61
2022/10/08 04:20:42;;;;;;;16.85;3.13;;;;;;;13.50;48.48;101479.06;7393694;19;20031;-61
2022/10/08 04:23:15;;;;;;;8.55;2.72;;;;;;;13.55;48.36;101480.78;7393814;19;19999;-60
2022/10/08 04:25:52;;;;;;;12.25;2.45;;;;;;;13.58;48.46;101484.78;7393265;19;20013;-61
2022/10/08 04:28:18;;;;;;;12.80;2.97;;;;;;;13.51;48.53;101480.69;7391891;19;20007;-61
2022/10/08 04:30:57;;;;;;;10.35;2.95;;;;;;;13.52;48.61;101485.00;7391597;19;20066;-61
2022/10/08 04:33:23;;;;;;;10.98;2.45;;;;;;;13.56;48.37;101493.38;7392652;19;20397;-61
2022/10/08 04:35:48;;;;;;;11.50;2.72;;;;;;;13.54;48.66;101494.84;7393727;19;20015;-61
2022/10/08 04:38:14;;;;;;;7.28;2.40;;;;;;;13.33;49.10;101493.84;7393448;19;20006;-61
2022/10/08 04:40:40;;;;;;;11.38;1.98;;;;;;;13.39;49.19;101480.69;7388712;19;20011;-61
2022/10/08 04:43:05;;;;;;;9.52;2.38;;;;;;;13.42;49.47;101493.72;7392588;19;20002;-61
2022/10/08 04:45:31;;;;;;;12.95;2.40;;;;;;;13.51;49.02;101510.84;7392536;19;20066;-61
2022/10/08 04:47:56;;;;;;;9.50;2.33;;;;;;;13.57;48.99;101510.63;7390912;19;20084;-60
2022/10/08 04:50:22;;;;;;;10.98;2.33;;;;;;;13.47;49.43;101506.38;7392342;19;20009;-60
2022/10/08 04:52:47;;;;;;;6.93;2.40;;;;;;;13.37;49.73;101512.34;7393059;19;20362;-61
2022/10/08 04:55:13;;;;;;;11.98;2.40;;;;;;;13.36;49.98;101505.25;7391734;19;20358;-60
2022/10/08 04:57:38;;;;;;;9.63;2.22;;;;;;;13.39;50.00;101510.84;7392013;19;20007;-61
2022/10/08 05:00:05;;;;;;;8.73;2.30;;;;;;;13.43;49.97;101513.72;7390625;19;19997;-61
2022/10/08 05:02:30;;;;;;;10.95;2.78;;;;;;;13.46;49.79;101511.09;7391147;19;20006;-61
2022/10/08 05:04:56;;;;;;;12.48;2.65;;;;;;;13.48;49.98;101508.00;7390801;19;19991;-60
2022/10/08 05:07:21;;;;;;;11.57;2.33;;;;;;;13.42;49.98;101504.66;7389576;19;20026;-61
2022/10/08 05:09:47;;;;;;;11.77;2.45;;;;;;;13.42;50.03;101509.38;7389843;19;20320;-61
2022/10/08 05:12:12;;;;;;;9.48;2.55;;;;;;;13.46;49.96;101513.81;7391793;19;20012;-61
2022/10/08 05:14:38;;;;;;;9.70;2.90;;;;;;;13.53;50.08;101513.25;7390690;19;20009;-61
2022/10/08 05:17:03;;;;;;;9.85;2.80;;;;;;;13.38;50.56;101508.47;7388179;19;20354;-61
2022/10/08 05:19:29;;;;;;;8.20;2.60;;;;;;;13.44;50.38;101520.78;7390181;19;19999;-61
2022/10/08 05:21:55;;;;;;;14.40;2.72;;;;;;;13.42;50.25;101532.09;7391872;19;20006;-61
2022/10/08 05:24:20;;;;;;;10.52;3.05;;;;;;;13.51;49.96;101534.75;7391106;19;20002;-61
2022/10/08 05:26:46;;;;;;;13.27;2.97;;;;;;;13.48;50.27;101533.47;7390079;19;20002;-61
2022/10/08 05:29:11;;;;;;;15.05;2.90;;;;;;;13.40;50.39;101528.09;7391423;19;20009;-60
2022/10/08 05:31:44;;;;;;;11.52;2.80;;;;;;;13.35;50.42;101531.09;7391529;19;19987;-61
2022/10/08 05:34:14;;;;;;;8.95;2.90;;;;;;;13.37;50.44;101535.06;7389789;19;20086;-61
2022/10/08 05:36:40;;;;;;;13.68;3.10;;;;;;;13.32;50.69;101533.34;7391911;19;20017;-60
2022/10/08 05:39:06;;;;;;;9.48;2.80;;;;;;;13.27;50.91;101530.84;7391324;19;20348;-60
2022/10/08 05:41:34;;;;;;;7.95;2.90;;;;;;;13.26;50.99;101540.22;7392726;19;20002;-61
2022/10/08 05:44:02;;;;;;;10.88;2.88;;;;;;;13.30;51.04;101538.38;7389913;19;20058;-60
2022/10/08 05:46:29;;;;;;;9.07;2.70;;;;;;;13.19;51.07;101545.44;7391571;19;20015;-60
2022/10/08 05:48:57;;;;;;;11.25;3.22;;;;;;;13.23;51.04;101546.38;7390401;19;20486;-60
2022/10/08 05:51:24;;;;;;;11.13;2.80;;;;;;;13.25;50.74;101535.88;7388552;19;20002;-60
2022/10/08 05:53:51;;;;;;;8.57;2.75;;;;;;;13.21;51.06;101540.44;7389677;19;20064;-60
2022/10/08 05:56:19;;;;;;;10.85;2.80;;;;;;;13.12;51.18;101545.22;7390430;19;20007;-60
2022/10/08 05:58:46;;;;;;;9.38;2.75;;;;;;;13.18;51.22;101543.06;7388730;19;20006;-60
2022/10/08 06:01:20;;;;;;;12.25;2.72;;;;;;;13.23;51.44;101546.38;7389926;19;20505;-60
2022/10/08 06:03:53;;;;;;;8.95;3.10;;;;;;;13.12;51.39;101542.47;7389404;19;20003;-60
2022/10/08 06:06:19;;;;;;;10.90;2.80;;;;;;;13.24;51.24;101556.22;7390152;19;19995;-60
2022/10/08 06:08:45;;;;;;;11.80;2.80;;;;;;;13.15;51.26;101552.75;7389872;19;19995;-61
2022/10/08 06:11:11;;;;;;;10.20;3.00;;;;;;;13.15;51.36;101547.28;7389972;19;19999;-60
2022/10/08 06:13:37;;;;;;;8.57;2.75;;;;;;;13.12;51.37;101554.22;7388504;19;19998;-60
2022/10/08 06:16:08;;;;;;;11.63;3.17;;;;;;;12.97;51.90;101560.38;7390146;19;20028;-60
2022/10/08 06:18:38;;;;;;;10.10;2.60;;;;;;;13.03;51.79;101569.19;7388215;19;20013;-60
2022/10/08 06:21:14;;;;;;;9.98;2.88;;;;;;;13.14;51.69;101571.16;7390569;19;19999;-60
2022/10/08 06:23:45;;;;;;;12.30;2.78;;;;;;;13.15;51.44;101571.94;7389151;19;20007;-60
2022/10/08 06:26:10;;;;;;;13.45;3.30;;;;;;;13.11;51.74;101584.75;7389694;19;20026;-60
2022/10/08 06:28:37;;;;;;;10.40;3.00;;;;;;;13.19;51.38;101585.78;7389043;19;20002;-60
2022/10/08 06:31:04;;;;;;;9.90;3.35;;;;;;;13.19;51.35;101583.81;7396425;19;20009;-60
2022/10/08 06:33:30;;;;;;;12.95;3.55;;;;;;;13.11;51.61;101603.94;7395668;19;20006;-60
2022/10/08 06:36:00;;;;;;;14.07;2.83;;;;;;;13.07;51.88;101600.25;7397921;19;20030;-60
2022/10/08 06:38:26;;;;;;;10.20;3.05;;;;;;;13.11;51.64;101610.19;7396963;19;19999;-60
2022/10/08 06:40:51;;;;;;;14.50;3.50;;;;;;;13.02;51.97;101612.22;7397258;19;19993;-60
2022/10/08 06:43:18;;;;;;;9.23;3.22;;;;;;;13.06;52.02;101617.81;7396466;19;20000;-60
2022/10/08 06:45:45;;;;;;;10.73;3.28;;;;;;;13.13;51.88;101612.59;7397342;19;20074;-60
2022/10/08 06:48:12;;;;;;;12.27;3.58;;;;;;;13.26;51.72;101616.16;7393046;19;20013;-60
2022/10/08 06:50:39;;;;;;;14.20;3.20;;;;;;;13.23;51.61;101625.09;7397401;19;19998;-60
2022/10/08 06:53:06;;;;;;;8.80;3.00;;;;;;;13.20;51.52;101618.31;7396646;19;19999;-60
2022/10/08 06:55:33;;;;;;;13.52;3.28;;;;;;;13.19;51.83;101627.69;7396561;19;20479;-59
2022/10/08 06:57:59;;;;;;;13.10;3.83;;;;;;;13.23;51.69;101627.81;7396508;19;20002;-59
2022/10/08 07:00:25;;;;;;;11.18;3.53;;;;;;;13.25;51.76;101637.28;7396080;19;20006;-61
2022/10/08 07:02:50;;;;;;;12.80;3.45;;;;;;;13.24;51.82;101635.72;7395765;19;20335;-59
2022/10/08 07:05:16;;;;;;;10.18;3.63;;;;;;;13.28;51.93;101647.59;7395521;19;20427;-58
2022/10/08 07:07:42;;;;;;;11.02;3.80;;;;;;;13.33;52.08;101643.84;7395179;19;20438;-58
2022/10/08 07:10:08;;;;;;;12.68;3.60;;;;;;;13.29;52.15;101643.72;7394471;19;19994;-59
2022/10/08 07:12:33;;;;;;;12.10;3.42;;;;;;;13.38;52.07;101651.03;7394497;19;20016;-59
2022/10/08 07:14:59;;;;;;;15.10;3.80;;;;;;;13.40;51.97;101660.53;7395513;19;19999;-59
2022/10/08 07:17:27;;;;;;;12.35;3.78;;;;;;;13.35;52.23;101660.75;7394078;19;19990;-59
2022/10/08 07:19:53;;;;;;;13.50;4.07;;;;;;;13.28;52.42;101660.50;7394965;19;20003;-59
2022/10/08 07:22:19;;;;;;;13.90;3.90;;;;;;;13.38;52.11;101675.72;7395800;19;20003;-59
2022/10/08 07:24:45;;;;;;;13.07;3.75;;;;;;;13.41;52.29;101677.75;7392835;19;20047;-59
2022/10/08 07:27:11;;;;;;;13.85;3.95;;;;;;;13.30;52.37;101675.47;7391983;19;20364;-59
2022/10/08 07:29:36;;;;;;;14.73;4.18;;;;;;;13.39;52.36;101686.31;7394631;19;20016;-60
2022/10/08 07:32:02;;;;;;;10.70;3.53;;;;;;;13.50;52.06;101686.72;7394523;19;19998;-60
2022/10/08 07:34:28;;;;;;;11.55;3.80;;;;;;;13.56;51.83;101701.00;7391798;19;20350;-60
2022/10/08 07:36:54;;;;;;;15.45;4.88;;;;;;;13.53;52.03;101691.53;7395516;19;20006;-59
2022/10/08 07:39:20;;;;;;;14.43;5.00;;;;;;;13.59;51.83;101701.09;7394557;19;20013;-59
2022/10/08 07:41:46;;;;;;;13.13;4.07;;;;;;;13.58;51.71;101694.03;7391677;19;20025;-60
2022/10/08 07:44:13;;;;;;;13.32;3.67;;;;;;;13.64;51.63;101700.91;7392602;19;20048;-60
2022/10/08 07:46:49;;;;;;;11.10;4.10;;;;;;;13.60;51.83;101705.47;7394286;19;20014;-59
2022/10/08 07:49:17;;;;;;;15.13;4.50;;;;;;;13.67;51.72;101705.69;7394833;19;20555;-58
2022/10/08 07:51:42;;;;;;;13.27;4.00;;;;;;;13.80;51.51;101711.22;7394692;19;20023;-59
2022/10/08 07:54:13;;;;;;;12.43;3.50;;;;;;;13.85;51.34;101719.25;7393243;19;20016;-58
2022/10/08 07:56:38;;;;;;;17.02;3.88;;;;;;;13.73;51.81;101714.53;7395456;19;19999;-59
2022/10/08 07:59:04;;;;;;;12.75;3.78;;;;;;;13.72;51.76;101723.09;7394147;19;19994;-59
2022/10/08 08:01:32;;;;;;;16.20;4.30;;;;;;;13.87;51.53;101723.25;7394914;19;20327;-59
2022/10/08 08:04:06;;;;;;;16.25;3.92;;;;;;;13.79;51.51;101731.56;7393211;19;20003;-60
2022/10/08 08:06:36;;;;;;;12.68;3.65;;;;;;;13.97;50.88;101716.50;7393356;19;20007;-60
2022/10/08 08:09:02;;;;;;;10.10;2.83;;;;;;;13.96;50.82;101725.09;7392193;19;19999;-60
2022/10/08 08:11:29;;;;;;;17.20;4.00;;;;;;;13.95;50.98;101740.75;7393884;19;20018;-59
2022/10/08 08:13:54;;;;;;;10.75;3.90;;;;;;;14.02;51.05;101743.72;7391864;19;20486;-59
2022/10/08 08:16:24;;;;;;;11.15;3.35;;;;;;;13.90;51.40;101743.72;7394232;19;20006;-59
2022/10/08 08:18:52;;;;;;;11.38;3.13;;;;;;;13.96;51.00;101742.38;7391359;19;20230;-59
2022/10/08 08:21:21;;;;;;;17.63;4.47;;;;;;;14.00;51.15;101748.75;7392373;19;20093;-60
2022/10/08 08:23:49;;;;;;;14.07;3.40;;;;;;;14.09;50.80;101753.34;7392025;19;20017;-59
2022/10/08 08:26:20;;;;;;;10.63;3.25;;;;;;;14.06;51.00;101741.91;7393727;19;20017;-59
2022/10/08 08:28:54;;;;;;;13.60;3.15;;;;;;;14.17;50.57;101757.94;7393632;19;20363;-59
2022/10/08 08:31:21;;;;;;;12.57;2.90;;;;;;;14.28;50.30;101752.78;7396280;19;20003;-60
2022/10/08 08:33:49;;;;;;;12.07;2.83;;;;;;;14.23;50.09;101757.38;7392879;19;19994;-60
2022/10/08 08:36:22;;;;;;;13.65;3.13;;;;;;;14.33;50.18;101761.59;7392969;19;20002;-60
2022/10/08 08:38:47;;;;;;;16.35;2.97;;;;;;;14.44;49.60;101773.72;7392916;19;20073;-60
2022/10/08 08:41:44;;;;;;;10.68;3.22;;;;;;;14.48;49.87;101767.53;7393294;19;19998;-60
2022/10/08 08:44:17;;;;;;;12.38;3.35;;;;;;;14.52;49.68;101776.69;7391884;19;20455;-60
2022/10/08 08:46:49;;;;;;;10.93;3.08;;;;;;;14.52;49.56;101776.69;7393343;19;20082;-59
2022/10/08 08:49:49;;;;;;;18.55;3.13;;;;;;;14.54;49.26;101779.88;7392523;19;20003;-60
2022/10/08 08:52:18;;;;;;;15.77;2.40;;;;;;;14.47;49.33;101780.47;7392739;19;20028;-60
2022/10/08 08:54:48;;;;;;;10.02;2.63;;;;;;;14.39;49.33;101776.69;7391046;19;20003;-60
2022/10/08 08:57:33;;;;;;;11.45;2.50;;;;;;;14.53;48.40;101776.34;7392624;19;20443;-60
2022/10/08 09:00:06;;;;;;;13.02;3.03;;;;;;;14.52;48.51;101784.94;7390160;19;19999;-60
2022/10/08 09:02:45;;;;;;;12.95;2.72;;;;;;;14.54;48.46;101783.44;7392255;19;20001;-60
2022/10/08 09:05:14;;;;;;;12.52;2.83;;;;;;;14.59;48.59;101780.44;7392462;19;20035;-60
2022/10/08 09:07:48;;;;;;;15.50;2.85;;;;;;;14.77;48.08;101785.72;7391727;19;20018;-59
2022/10/08 09:10:21;;;;;;;12.35;2.33;;;;;;;14.89;47.66;101771.16;7392411;19;20001;-60
2022/10/08 09:12:51;;;;;;;13.15;2.80;;;;;;;14.95;47.74;101778.03;7392385;19;20009;-60
2022/10/08 09:15:25;;;;;;;11.43;2.30;;;;;;;14.95;47.57;101780.78;7392896;19;20018;-60
2022/10/08 09:17:52;;;;;;;12.93;2.30;;;;;;;15.09;47.21;101785.88;7392439;19;20015;-60
2022/10/08 09:20:21;;;;;;;9.85;2.30;;;;;;;15.06;46.76;101784.63;7391506;19;20006;-60
2022/10/08 09:22:49;;;;;;;11.38;2.45;;;;;;;15.15;46.49;101779.78;7391613;19;20462;-60
2022/10/08 09:25:19;;;;;;;7.85;1.88;;;;;;;15.22;46.41;101784.69;7392638;19;20494;-60
2022/10/08 09:27:48;;;;;;;17.40;2.55;;;;;;;15.19;46.44;101790.88;7389652;19;20463;-59
2022/10/08 09:30:23;;;;;;;11.93;2.42;;;;;;;15.16;45.58;101791.56;7389996;19;20010;-60
2022/10/08 09:32:49;;;;;;;15.32;1.92;;;;;;;15.07;45.79;101788.19;7390241;19;20455;-60
2022/10/08 09:35:15;;;;;;;8.00;1.27;;;;;;;15.06;45.95;101792.88;7392092;19;20081;-60
2022/10/08 09:37:45;;;;;;;12.90;1.90;;;;;;;15.15;45.78;101801.00;7391731;19;20015;-59
2022/10/08 09:40:10;;;;;;;14.43;2.42;;;;;;;15.29;45.25;101795.09;7390882;19;20003;-60
2022/10/08 09:42:35;;;;;;;14.70;2.17;;;;;;;15.50;44.92;101790.19;7391796;19;20009;-59
2022/10/08 09:45:02;;;;;;;13.93;1.98;;;;;;;15.43;45.16;101792.75;7390837;19;20014;-59
2022/10/08 09:47:29;;;;;;;10.23;1.77;;;;;;;15.53;44.79;101800.50;7390588;19;20005;-60
2022/10/08 09:50:06;;;;;;;13.40;1.98;;;;;;;15.68;44.56;101801.72;7388751;19;19995;-59
2022/10/08 09:52:34;;;;;;;10.00;2.47;;;;;;;15.75;44.57;101800.28;7391231;19;20013;-60
2022/10/08 09:55:09;;;;;;;6.38;1.55;;;;;;;15.50;44.25;101806.69;7390754;19;19999;-59
2022/10/08 09:57:44;;;;;;;15.57;2.25;;;;;;;15.31;44.08;101812.84;7391543;19;20019;-59
2022/10/08 10:00:30;;;;;;;15.38;1.90;;;;;;;15.34;43.78;101819.59;7389370;19;20422;-59
2022/10/08 10:02:58;;;;;;;10.23;2.35;;;;;;;15.38;43.87;101820.50;7390382;19;19999;-59
2022/10/08 10:05:26;;;;;;;12.10;2.20;;;;;;;15.51;43.67;101819.31;7390361;19;19999;-60
2022/10/08 10:07:53;;;;;;;9.32;1.83;;;;;;;15.59;43.45;101825.00;7389732;19;20001;-60
2022/10/08 10:10:33;;;;;;;10.05;2.10;;;;;;;15.44;43.40;101832.84;7389159;19;20443;-60
2022/10/08 10:13:05;;;;;;;10.63;1.83;;;;;;;15.46;43.85;101830.53;7390448;19;20019;-59
2022/10/08 10:15:42;;;;;;;9.73;1.70;;;;;;;15.48;43.36;101825.50;7389565;19;20006;-59
2022/10/08 10:18:12;;;;;;;9.45;1.40;;;;;;;15.70;42.29;101832.44;7390317;19;20007;-60
2022/10/08 10:20:42;;;;;;;8.70;1.35;;;;;;;15.77;42.29;101831.81;7388692;19;20022;-59
2022/10/08 10:23:23;;;;;;;8.23;1.52;;;;;;;15.78;40.77;101833.44;7389989;19;20010;-60
2022/10/08 10:25:53;;;;;;;7.60;1.90;;;;;;;15.92;41.46;101828.28;7390054;19;20492;-60
2022/10/08 10:28:29;;;;;;;6.85;1.50;;;;;;;15.98;41.27;101830.78;7387420;19;20451;-60
2022/10/08 10:31:32;;;;;;;9.02;1.88;;;;;;;15.94;40.88;101830.69;7391133;19;20002;-61
2022/10/08 10:34:03;;;;;;;7.70;1.85;;;;;;;16.07;41.38;101837.72;7385472;19;19995;-60
2022/10/08 10:36:35;;;;;;;8.05;1.67;;;;;;;15.77;41.54;101844.78;7387886;19;19991;-60
2022/10/08 10:39:25;;;;;;;7.70;1.58;;;;;;;15.43;42.37;101849.69;7388464;19;20003;-60
2022/10/08 10:42:17;;;;;;;8.07;1.20;;;;;;;15.23;42.23;101851.47;7389783;19;20003;-60
2022/10/08 10:44:48;;;;;;;6.22;1.20;;;;;;;15.20;42.62;101857.66;7387671;19;20013;-59
2022/10/08 10:47:14;;;;;;;6.18;1.10;;;;;;;15.01;43.06;101859.09;7388465;19;19999;-59
2022/10/08 10:49:41;;;;;;;6.57;1.20;;;;;;;15.10;43.03;101865.28;7388631;19;19999;-59
2022/10/08 10:52:17;;;;;;;8.70;1.38;;;;;;;14.89;42.90;101859.13;7387549;19;20002;-60
2022/10/08 10:54:57;;;;;;;8.25;1.27;;;;;;;15.06;43.04;101858.84;7386971;19;19995;-59
2022/10/08 10:57:39;;;;;;;8.65;1.70;;;;;;;15.37;42.52;101865.66;7390077;19;20006;-59
2022/10/08 11:00:21;;;;;;;7.57;1.50;;;;;;;15.65;42.35;101851.16;7386203;19;20009;-60
2022/10/08 11:02:52;;;;;;;5.35;1.30;;;;;;;15.84;42.26;101853.25;7388358;19;20007;-59
2022/10/08 11:05:22;;;;;;;8.55;1.25;;;;;;;15.88;42.07;101854.94;7387012;19;20002;-60
2022/10/08 11:08:19;;;;;;;6.72;1.00;;;;;;;15.96;41.83;101861.41;7386361;19;20036;-59
2022/10/08 11:11:16;;;;;;;9.48;1.50;;;;;;;15.85;41.88;101847.38;7388071;19;20006;-60
2022/10/08 11:13:54;;;;;;;9.50;1.92;;;;;;;15.82;41.91;101856.34;7389146;19;20003;-60
2022/10/08 11:16:40;;;;;;;8.23;1.30;;;;;;;15.58;40.73;101860.00;7391812;19;20482;-60
2022/10/08 11:19:33;;;;;;;8.95;1.20;;;;;;;15.64;40.13;101849.53;7398442;19;20010;-60
2022/10/08 11:22:11;;;;;;;6.38;1.00;;;;;;;15.77;39.29;101858.56;7396664;19;19994;-59
2022/10/08 11:25:00;;;;;;;7.70;1.13;;;;;;;16.15;38.63;101866.25;7391857;19;20498;-60
2022/10/08 11:27:43;;;;;;;4.47;1.13;;;;;;;16.19;38.50;101847.84;7393572;19;20098;-59
2022/10/08 11:30:20;;;;;;;5.90;1.17;;;;;;;16.38;37.95;101843.59;7393615;19;20003;-59
2022/10/08 11:32:53;;;;;;;8.40;1.75;;;;;;;16.61;38.21;101852.84;7393437;19;20066;-59
2022/10/08 11:35:24;;;;;;;8.50;1.53;;;;;;;16.64;38.36;101860.41;7394750;19;20489;-59